Calebarian — FVXO — position and weather

sailwx.info

Track history (hours):
 
Tides and Currents Weather Stations Pressure Air Temp Water Temp Dewpoint Dewpoint Depression Visibility Wind Speed Wind Dir Waves Ship Positions

Calebarian

Last reported at 2018-May-25 07:46 UTC. Time now 2018-May-25 22:46 UTC.
Position N 45°52' W 002°17'.

Length 22 m; draft 3.8 m.

Type: Fishing. MMSI: 227834000.

Date/timePositionNaut miles runAvg speedWind from/ knotsBaromVisibWave heightAir tempDewpointWater temp
2018-May-25 07:46N 45°52' W 002°17'1 2.3
2018-May-25 07:30N 45°52' W 002°17'0 0.8
2018-May-25 07:00N 45°52' W 002°18'2 0.7
2018-May-25 04:14N 45°51' W 002°21'0 0.0
2018-May-25 03:27N 45°51' W 002°21'0 0.1
2018-May-25 01:36N 45°51' W 002°21'0 0.0
2018-May-25 01:10N 45°51' W 002°21'0 0.0
2018-May-25 00:57N 45°51' W 002°21'0 0.0
2018-May-25 00:30N 45°51' W 002°20'0 0.0
2018-May-24 23:56N 45°51' W 002°21'0 0.1
2018-May-24 23:30N 45°51' W 002°20'0 0.0
2018-May-24 23:00N 45°51' W 002°20'0 0.0
2018-May-24 22:30N 45°51' W 002°20'0 0.2
2018-May-24 22:00N 45°51' W 002°20'0 0.2
2018-May-24 21:30N 45°51' W 002°20'0 0.1
2018-May-24 21:00N 45°51' W 002°21'0 0.1
2018-May-24 20:29N 45°51' W 002°21'0 0.6
2018-May-24 20:00N 45°51' W 002°21'2 3.1
2018-May-24 19:30N 45°51' W 002°19'1 1.6
2018-May-24 19:00N 45°52' W 002°20'4 5.9
2018-May-24 18:24N 45°54' W 002°24'4 9.3
2018-May-24 17:55N 45°58' W 002°25'4 9.7
2018-May-24 17:30N 46°02' W 002°27'5 9.2
2018-May-24 17:00N 46°07' W 002°28'24 2.9
2018-May-24 08:44N 46°28' W 002°43'1 1.0
2018-May-24 07:53N 46°28' W 002°42'0 0.4
2018-May-24 07:19N 46°27' W 002°42'2 0.2
2018-May-23 23:36N 46°28' W 002°44'0 0.0
2018-May-23 23:30N 46°28' W 002°44'6 0.2
2018-May-22 21:47N 46°22' W 002°45'0 0.1
2018-May-22 21:28N 46°22' W 002°45'0 0.1
2018-May-22 20:59N 46°22' W 002°45'0 0.1
2018-May-22 20:30N 46°22' W 002°45'0 0.1
2018-May-22 20:00N 46°22' W 002°45'0 0.0
2018-May-22 19:29N 46°22' W 002°45'0 0.0
2018-May-22 19:00N 46°22' W 002°45'0 0.0
2018-May-22 18:30N 46°22' W 002°45'0 0.0
2018-May-22 18:00N 46°22' W 002°45'0 0.0
2018-May-22 17:30N 46°22' W 002°45'0 0.0
2018-May-22 17:00N 46°22' W 002°45'0 0.0
2018-May-22 16:30N 46°22' W 002°45'  
2018-May-16 18:10N 46°44' W 002°21'0 1.7
2018-May-16 18:00N 46°44' W 002°21'4 8.9
2018-May-16 17:30N 46°42' W 002°15'4 8.9
2018-May-16 17:00N 46°39' W 002°10'4 8.9
2018-May-16 16:30N 46°36' W 002°05'4 8.6
2018-May-16 16:00N 46°34' W 001°60'4 8.5
2018-May-16 15:31N 46°31' W 001°55'4 7.8
2018-May-16 15:00N 46°29' W 001°50'2 4.5
2018-May-16 14:30N 46°30' W 001°47'0 0.0
2018-May-16 14:00N 46°30' W 001°47'0 0.0
2018-May-16 13:30N 46°30' W 001°47'0 0.0
2018-May-16 10:18N 46°30' W 001°47'0 0.0
2018-May-16 10:00N 46°30' W 001°47'0 0.0
2018-May-16 09:30N 46°30' W 001°47'0 0.0
2018-May-16 09:00N 46°30' W 001°47'0 0.0
2018-May-16 08:30N 46°30' W 001°47'0 0.0
2018-May-16 08:00N 46°30' W 001°47'  
Track history (hours):
 
Tides and Currents Weather Stations Pressure Air Temp Water Temp Dewpoint Dewpoint Depression Visibility Wind Speed Wind Dir Waves Ship Positions

Calebarian

Last reported at 2018-May-25 07:46 UTC. Time now 2018-May-25 22:46 UTC.
Position N 45°52' W 002°17'.

Length 22 m; draft 3.8 m.

Type: Fishing. MMSI: 227834000.

Date/timePositionNaut miles runAvg speedWind from/ knotsBaromVisibWave heightAir tempDewpointWater temp
2018-May-25 07:46N 45°52' W 002°17'1 2.3
2018-May-25 07:30N 45°52' W 002°17'0 0.8
2018-May-25 07:00N 45°52' W 002°18'2 0.7
2018-May-25 04:14N 45°51' W 002°21'0 0.0
2018-May-25 03:27N 45°51' W 002°21'0 0.1
2018-May-25 01:36N 45°51' W 002°21'0 0.0
2018-May-25 01:10N 45°51' W 002°21'0 0.0
2018-May-25 00:57N 45°51' W 002°21'0 0.0
2018-May-25 00:30N 45°51' W 002°20'0 0.0
2018-May-24 23:56N 45°51' W 002°21'0 0.1
2018-May-24 23:30N 45°51' W 002°20'0 0.0
2018-May-24 23:00N 45°51' W 002°20'0 0.0
2018-May-24 22:30N 45°51' W 002°20'0 0.2
2018-May-24 22:00N 45°51' W 002°20'0 0.2
2018-May-24 21:30N 45°51' W 002°20'0 0.1
2018-May-24 21:00N 45°51' W 002°21'0 0.1
2018-May-24 20:29N 45°51' W 002°21'0 0.6
2018-May-24 20:00N 45°51' W 002°21'2 3.1
2018-May-24 19:30N 45°51' W 002°19'1 1.6
2018-May-24 19:00N 45°52' W 002°20'4 5.9
2018-May-24 18:24N 45°54' W 002°24'4 9.3
2018-May-24 17:55N 45°58' W 002°25'4 9.7
2018-May-24 17:30N 46°02' W 002°27'5 9.2
2018-May-24 17:00N 46°07' W 002°28'24 2.9
2018-May-24 08:44N 46°28' W 002°43'1 1.0
2018-May-24 07:53N 46°28' W 002°42'0 0.4
2018-May-24 07:19N 46°27' W 002°42'2 0.2
2018-May-23 23:36N 46°28' W 002°44'0 0.0
2018-May-23 23:30N 46°28' W 002°44'6 0.2
2018-May-22 21:47N 46°22' W 002°45'0 0.1
2018-May-22 21:28N 46°22' W 002°45'0 0.1
2018-May-22 20:59N 46°22' W 002°45'0 0.1
2018-May-22 20:30N 46°22' W 002°45'0 0.1
2018-May-22 20:00N 46°22' W 002°45'0 0.0
2018-May-22 19:29N 46°22' W 002°45'0 0.0
2018-May-22 19:00N 46°22' W 002°45'0 0.0
2018-May-22 18:30N 46°22' W 002°45'0 0.0
2018-May-22 18:00N 46°22' W 002°45'0 0.0
2018-May-22 17:30N 46°22' W 002°45'0 0.0
2018-May-22 17:00N 46°22' W 002°45'0 0.0
2018-May-22 16:30N 46°22' W 002°45'  
2018-May-16 18:10N 46°44' W 002°21'0 1.7
2018-May-16 18:00N 46°44' W 002°21'4 8.9
2018-May-16 17:30N 46°42' W 002°15'4 8.9
2018-May-16 17:00N 46°39' W 002°10'4 8.9
2018-May-16 16:30N 46°36' W 002°05'4 8.6
2018-May-16 16:00N 46°34' W 001°60'4 8.5
2018-May-16 15:31N 46°31' W 001°55'4 7.8
2018-May-16 15:00N 46°29' W 001°50'2 4.5
2018-May-16 14:30N 46°30' W 001°47'0 0.0
2018-May-16 14:00N 46°30' W 001°47'0 0.0
2018-May-16 13:30N 46°30' W 001°47'0 0.0
2018-May-16 10:18N 46°30' W 001°47'0 0.0
2018-May-16 10:00N 46°30' W 001°47'0 0.0
2018-May-16 09:30N 46°30' W 001°47'0 0.0
2018-May-16 09:00N 46°30' W 001°47'0 0.0
2018-May-16 08:30N 46°30' W 001°47'0 0.0
2018-May-16 08:00N 46°30' W 001°47'  

Dump ship's entire track history